createdAt,value
2018-06-16T00:01:24.418Z,22.00
2018-06-16T00:03:54.744Z,23.23
2018-06-16T00:06:25.990Z,21.80
2018-06-16T00:08:56.902Z,21.97
2018-06-16T00:11:27.652Z,24.77
2018-06-16T00:13:58.593Z,27.23
2018-06-16T00:16:29.569Z,26.80
2018-06-16T00:19:00.144Z,25.93
2018-06-16T00:21:31.363Z,28.77
2018-06-16T00:24:02.190Z,29.13
2018-06-16T00:26:32.868Z,27.03
2018-06-16T00:29:03.785Z,28.97
2018-06-16T00:31:34.358Z,25.80
2018-06-16T00:34:04.521Z,26.03
2018-06-16T00:36:35.859Z,23.47
2018-06-16T00:39:10.090Z,27.97
2018-06-16T00:41:41.290Z,27.60
2018-06-16T00:44:12.382Z,27.43
2018-06-16T00:46:43.512Z,26.33
2018-06-16T00:49:14.905Z,26.83
2018-06-16T00:51:46.031Z,25.30
2018-06-16T00:54:16.576Z,22.60
2018-06-16T00:56:55.624Z,24.67
2018-06-16T00:59:27.139Z,23.43
2018-06-16T01:01:58.374Z,24.07
2018-06-16T01:04:29.280Z,23.50
2018-06-16T01:06:59.508Z,25.23
2018-06-16T01:09:30.592Z,26.30
2018-06-16T01:12:01.567Z,25.70
2018-06-16T01:14:32.564Z,23.63
2018-06-16T01:17:03.306Z,25.00
2018-06-16T01:19:34.264Z,23.93
2018-06-16T01:22:04.455Z,23.07
2018-06-16T01:24:34.733Z,23.13
2018-06-16T01:27:05.957Z,22.77
2018-06-16T01:29:38.183Z,23.57
2018-06-16T01:32:09.427Z,21.43
2018-06-16T01:34:40.750Z,21.97
2018-06-16T01:37:11.714Z,23.00
2018-06-16T01:39:41.976Z,21.50
2018-06-16T01:42:13.339Z,21.17
2018-06-16T01:44:44.013Z,22.50
2018-06-16T01:47:14.724Z,21.97
2018-06-16T01:49:45.765Z,21.67
2018-06-16T01:52:16.678Z,22.07
2018-06-16T01:54:47.187Z,22.23
2018-06-16T01:57:17.807Z,22.03
2018-06-16T01:59:48.726Z,21.23
2018-06-16T02:02:19.417Z,21.23
2018-06-16T02:04:50.639Z,21.53
2018-06-16T02:07:20.807Z,21.23
2018-06-16T02:09:51.130Z,21.70
2018-06-16T02:12:22.013Z,20.03
2018-06-16T02:14:52.442Z,19.77
2018-06-16T02:17:23.500Z,19.23
2018-06-16T02:19:54.380Z,20.70
2018-06-16T02:22:25.200Z,18.40
2018-06-16T02:24:55.564Z,19.10
2018-06-16T02:27:26.684Z,18.10
2018-06-16T02:29:57.767Z,18.70
2018-06-16T02:32:28.960Z,18.23
2018-06-16T02:35:00.116Z,18.90
2018-06-16T02:37:31.333Z,20.17
2018-06-16T02:40:02.289Z,19.97
2018-06-16T02:42:33.417Z,19.10
2018-06-16T02:45:04.441Z,19.87
2018-06-16T02:47:35.446Z,19.43
2018-06-16T02:50:06.675Z,20.77
2018-06-16T02:52:37.723Z,19.90
2018-06-16T02:55:08.101Z,19.07
2018-06-16T02:57:39.101Z,19.30
2018-06-16T03:00:10.006Z,20.57
2018-06-16T03:02:41.220Z,20.37
2018-06-16T03:05:12.371Z,21.00
2018-06-16T03:07:43.264Z,21.27
2018-06-16T03:10:14.039Z,18.37
2018-06-16T03:12:45.381Z,20.80
2018-06-16T03:15:16.869Z,22.00
2018-06-16T03:17:47.639Z,21.17
2018-06-16T03:20:17.510Z,21.67
2018-06-16T03:22:48.539Z,19.80
2018-06-16T03:25:19.389Z,21.23
2018-06-16T03:27:49.895Z,20.20
2018-06-16T03:30:20.699Z,22.03
2018-06-16T03:32:51.646Z,21.83
2018-06-16T03:35:22.982Z,20.53
2018-06-16T03:37:54.229Z,21.57
2018-06-16T03:40:25.360Z,19.67
2018-06-16T03:42:56.246Z,21.47
2018-06-16T03:45:27.273Z,23.57
2018-06-16T03:47:58.290Z,23.63
2018-06-16T03:50:29.410Z,22.30
2018-06-16T03:53:00.590Z,22.30
2018-06-16T03:55:31.747Z,22.93
2018-06-16T03:58:02.776Z,22.70
2018-06-16T04:00:33.258Z,21.83
2018-06-16T04:03:04.979Z,22.60
2018-06-16T04:05:35.648Z,23.43
2018-06-16T04:08:06.901Z,22.47
2018-06-16T04:10:37.953Z,21.30
2018-06-16T04:13:09.050Z,21.33
2018-06-16T04:15:41.428Z,22.67
2018-06-16T04:18:12.003Z,22.27
2018-06-16T04:20:42.774Z,21.63
2018-06-16T04:23:13.344Z,21.87
2018-06-16T04:25:44.105Z,22.60
2018-06-16T04:28:14.921Z,21.27
2018-06-16T04:30:45.180Z,21.43
2018-06-16T04:33:15.361Z,20.73
2018-06-16T04:35:45.570Z,23.17
2018-06-16T04:38:16.317Z,22.80
2018-06-16T04:40:47.267Z,21.60
2018-06-16T04:43:19.593Z,24.93
2018-06-16T04:45:49.788Z,20.43
2018-06-16T04:48:20.458Z,21.00
2018-06-16T04:50:51.344Z,19.50
2018-06-16T04:53:22.358Z,19.83
2018-06-16T04:55:53.260Z,20.63
2018-06-16T04:58:23.443Z,21.80
2018-06-16T05:00:54.316Z,20.07
2018-06-16T05:03:24.916Z,21.90
2018-06-16T05:05:55.608Z,21.33
2018-06-16T05:08:26.223Z,21.50
2018-06-16T05:10:57.009Z,21.37
2018-06-16T05:13:28.329Z,22.37
2018-06-16T05:15:59.760Z,22.70
2018-06-16T05:18:30.656Z,22.17
2018-06-16T05:21:01.516Z,20.97
2018-06-16T05:23:31.979Z,21.37
2018-06-16T05:26:01.731Z,19.47
2018-06-16T05:28:31.464Z,20.87
2018-06-16T05:31:01.324Z,18.50
2018-06-16T05:33:31.275Z,21.17
2018-06-16T05:36:01.249Z,17.50
2018-06-16T05:38:31.177Z,19.00
2018-06-16T05:41:01.116Z,18.93
2018-06-16T05:43:31.158Z,19.77
2018-06-16T05:46:00.931Z,19.37
2018-06-16T05:48:30.634Z,17.77
2018-06-16T05:51:00.550Z,17.77
2018-06-16T05:53:30.493Z,16.17
2018-06-16T05:56:00.233Z,16.57
2018-06-16T05:58:30.209Z,17.93
2018-06-16T06:01:00.142Z,18.63
2018-06-16T06:03:30.158Z,14.50
2018-06-16T06:05:59.901Z,15.33
2018-06-16T06:08:29.662Z,14.03
2018-06-16T06:10:59.680Z,12.20
2018-06-16T06:13:29.646Z,13.97
2018-06-16T06:15:59.671Z,14.23
2018-06-16T06:18:29.545Z,13.40
2018-06-16T06:20:59.443Z,12.97
2018-06-16T06:23:29.649Z,13.20
2018-06-16T06:25:59.365Z,13.03
2018-06-16T06:28:29.073Z,11.30
2018-06-16T06:30:59.193Z,11.60
2018-06-16T06:33:29.206Z,10.83
2018-06-16T06:35:59.283Z,11.57
2018-06-16T06:38:29.329Z,12.77
2018-06-16T06:40:59.438Z,11.67
2018-06-16T06:43:29.510Z,12.93
2018-06-16T06:45:59.292Z,11.87
2018-06-16T06:48:29.021Z,13.90
2018-06-16T06:50:58.958Z,15.00
2018-06-16T06:53:28.840Z,15.43
2018-06-16T06:55:58.579Z,15.27
2018-06-16T06:58:28.498Z,15.10
2018-06-16T07:00:58.515Z,15.43
2018-06-16T07:03:28.542Z,14.80
2018-06-16T07:05:58.294Z,16.57
2018-06-16T07:08:28.050Z,16.10
2018-06-16T07:10:57.796Z,15.07
2018-06-16T07:13:27.695Z,15.93
2018-06-16T07:15:57.820Z,16.70
2018-06-16T07:18:27.812Z,14.90
2018-06-16T07:20:57.681Z,15.00
2018-06-16T07:23:27.597Z,15.90
2018-06-16T07:25:57.356Z,14.63
2018-06-16T07:28:27.082Z,14.60
2018-06-16T07:30:57.100Z,15.17
2018-06-16T07:33:26.987Z,15.80
2018-06-16T07:35:57.301Z,13.70
2018-06-16T07:38:27.226Z,13.47
2018-06-16T07:40:57.172Z,13.50
2018-06-16T07:43:27.042Z,13.43
2018-06-16T07:45:56.749Z,14.60
2018-06-16T07:48:26.482Z,14.90
2018-06-16T07:50:56.511Z,13.70
2018-06-16T07:53:26.530Z,13.03
2018-06-16T07:55:56.406Z,13.60
2018-06-16T07:58:26.457Z,15.53
2018-06-16T08:00:56.332Z,15.20
2018-06-16T08:03:26.267Z,14.83
2018-06-16T08:05:56.095Z,14.10
2018-06-16T08:08:25.871Z,13.63
2018-06-16T08:10:55.899Z,13.27
2018-06-16T08:13:25.789Z,13.33
2018-06-16T08:15:55.744Z,12.90
2018-06-16T08:18:25.676Z,12.80
2018-06-16T08:20:55.648Z,13.93
2018-06-16T08:23:25.459Z,12.87
2018-06-16T08:25:55.238Z,12.63
2018-06-16T08:28:24.975Z,12.17
2018-06-16T08:30:54.849Z,12.37
2018-06-16T08:33:24.716Z,11.53
2018-06-16T08:35:54.774Z,11.83
2018-06-16T08:38:24.501Z,12.90
2018-06-16T08:40:54.369Z,12.03
2018-06-16T08:43:24.214Z,12.43
2018-06-16T08:45:53.990Z,11.87
2018-06-16T08:48:23.796Z,12.13
2018-06-16T08:50:53.515Z,11.73
2018-06-16T08:53:23.312Z,10.90
2018-06-16T08:55:53.179Z,11.97
2018-06-16T08:58:23.001Z,13.67
2018-06-16T09:00:52.821Z,13.77
2018-06-16T09:03:22.753Z,12.40
2018-06-16T09:05:52.485Z,14.30
2018-06-16T09:08:22.243Z,13.23
2018-06-16T09:10:52.059Z,11.90
2018-06-16T09:13:21.858Z,11.53
2018-06-16T09:15:51.663Z,11.10
2018-06-16T09:18:21.564Z,17.97
2018-06-16T09:20:51.450Z,11.10
2018-06-16T09:23:21.301Z,13.27
2018-06-16T09:25:51.052Z,11.57
2018-06-16T09:28:20.780Z,10.60
2018-06-16T09:30:50.552Z,11.30
2018-06-16T09:33:20.356Z,10.93
2018-06-16T09:35:50.209Z,11.13
2018-06-16T09:38:20.076Z,11.47
2018-06-16T09:40:49.946Z,11.40
2018-06-16T09:43:19.940Z,11.27
2018-06-16T09:45:50.526Z,15.13
2018-06-16T09:48:20.389Z,11.80
2018-06-16T09:50:50.258Z,12.40
2018-06-16T09:53:20.146Z,13.90
2018-06-16T09:55:49.980Z,12.20
2018-06-16T09:58:19.853Z,12.63
2018-06-16T10:00:49.671Z,12.90
2018-06-16T10:03:19.548Z,13.50
2018-06-16T10:05:49.288Z,12.90
2018-06-16T10:08:19.009Z,12.77
2018-06-16T10:10:48.906Z,12.57
2018-06-16T10:13:18.825Z,12.37
2018-06-16T10:15:48.643Z,13.43
2018-06-16T10:18:18.464Z,13.20
2018-06-16T10:20:48.328Z,13.87
2018-06-16T10:23:18.196Z,14.20
2018-06-16T10:25:47.939Z,13.77
2018-06-16T10:28:17.707Z,14.27
2018-06-16T10:30:47.488Z,14.93
2018-06-16T10:33:17.315Z,15.50
2018-06-16T10:35:47.205Z,15.27
2018-06-16T10:38:17.353Z,15.47
2018-06-16T10:40:47.234Z,15.67
2018-06-16T10:43:17.061Z,14.90
2018-06-16T10:45:46.857Z,13.10
2018-06-16T10:48:17.399Z,14.17
2018-06-16T10:50:47.218Z,12.03
2018-06-16T10:53:17.044Z,11.57
2018-06-16T10:55:46.840Z,12.30
2018-06-16T10:58:16.615Z,11.83
2018-06-16T11:00:46.428Z,11.77
2018-06-16T11:03:16.309Z,12.80
2018-06-16T11:05:46.650Z,11.80
2018-06-16T11:08:16.493Z,10.50
2018-06-16T11:10:46.292Z,8.10
2018-06-16T11:13:16.129Z,9.10
2018-06-16T11:15:45.965Z,8.83
2018-06-16T11:18:15.816Z,7.73
2018-06-16T11:20:45.693Z,8.03
2018-06-16T11:23:15.553Z,8.33
2018-06-16T11:25:45.290Z,8.20
2018-06-16T11:28:15.020Z,7.57
2018-06-16T11:30:44.833Z,6.43
2018-06-16T11:33:14.888Z,6.53
2018-06-16T11:35:44.714Z,5.90
2018-06-16T11:38:14.572Z,5.20
2018-06-16T11:40:44.745Z,12.20
2018-06-16T11:43:15.340Z,53.07
2018-06-16T11:45:45.477Z,17.07
2018-06-16T11:48:21.356Z,7.80
2018-06-16T11:50:51.651Z,6.70
2018-06-16T11:53:21.634Z,6.30
2018-06-16T11:55:52.202Z,7.70
2018-06-16T11:58:22.503Z,7.60
2018-06-16T12:00:52.697Z,9.10
2018-06-16T12:03:22.890Z,9.20
2018-06-16T12:05:52.751Z,10.97
2018-06-16T12:08:22.516Z,12.23
2018-06-16T12:10:52.394Z,9.50
2018-06-16T12:13:22.389Z,9.10
2018-06-16T12:15:52.259Z,10.03
2018-06-16T12:18:22.174Z,19.40
2018-06-16T12:20:51.995Z,10.43
2018-06-16T12:23:21.889Z,11.10
2018-06-16T12:25:51.613Z,12.97
2018-06-16T12:28:21.410Z,14.23
2018-06-16T12:30:51.462Z,11.30
2018-06-16T12:33:21.243Z,9.97
2018-06-16T12:35:51.066Z,10.13
2018-06-16T12:38:21.443Z,10.53
2018-06-16T12:40:51.288Z,9.63
2018-06-16T12:43:21.089Z,8.40
2018-06-16T12:45:50.808Z,8.27
2018-06-16T12:48:20.546Z,8.73
2018-06-16T12:50:50.413Z,8.50
2018-06-16T12:53:20.154Z,8.10
2018-06-16T12:55:49.998Z,8.90
2018-06-16T12:58:19.745Z,8.07
2018-06-16T13:00:49.582Z,7.47
2018-06-16T13:03:19.377Z,8.10
2018-06-16T13:05:49.134Z,7.30
2018-06-16T13:08:18.845Z,7.80
2018-06-16T13:10:48.597Z,7.20
2018-06-16T13:13:18.490Z,7.43
2018-06-16T13:15:48.337Z,6.87
2018-06-16T13:18:18.227Z,7.23
2018-06-16T13:20:48.059Z,6.80
2018-06-16T13:23:17.913Z,7.27
2018-06-16T13:25:47.703Z,6.90
2018-06-16T13:28:17.419Z,5.80
2018-06-16T13:30:47.126Z,5.30
2018-06-16T13:33:17.103Z,5.50
2018-06-16T13:35:47.027Z,5.80
2018-06-16T13:38:16.903Z,5.67
2018-06-16T13:40:46.730Z,6.00
2018-06-16T13:43:16.568Z,5.60
2018-06-16T13:45:46.400Z,6.27
2018-06-16T13:48:16.160Z,6.10
2018-06-16T13:50:46.250Z,5.90
2018-06-16T13:53:16.472Z,6.30
2018-06-16T13:55:46.500Z,6.20
2018-06-16T13:58:16.242Z,5.80
2018-06-16T14:00:46.426Z,5.70
2018-06-16T14:03:16.269Z,5.30
2018-06-16T14:05:46.007Z,5.87
2018-06-16T14:08:15.796Z,5.63
2018-06-16T14:10:45.628Z,5.03
2018-06-16T14:13:15.461Z,5.07
2018-06-16T14:15:45.379Z,5.40
2018-06-16T14:18:15.253Z,4.60
2018-06-16T14:20:45.013Z,5.27
2018-06-16T14:23:14.953Z,5.77
2018-06-16T14:25:44.803Z,4.90
2018-06-16T14:28:14.564Z,4.63
2018-06-16T14:30:44.441Z,5.37
2018-06-16T14:33:14.512Z,4.87
2018-06-16T14:35:44.357Z,4.97
2018-06-16T14:38:14.530Z,4.70
2018-06-16T14:40:44.254Z,4.67
2018-06-16T14:43:13.990Z,4.97
2018-06-16T14:45:43.774Z,5.13
2018-06-16T14:48:13.442Z,4.73
2018-06-16T14:50:43.320Z,5.30
2018-06-16T14:53:13.133Z,5.43
2018-06-16T14:55:42.871Z,5.50
2018-06-16T14:58:12.579Z,5.20
2018-06-16T15:00:42.460Z,4.47
2018-06-16T15:03:12.265Z,8.83
2018-06-16T15:05:42.043Z,5.03
2018-06-16T15:08:11.779Z,4.53
2018-06-16T15:10:41.553Z,4.50
2018-06-16T15:13:11.264Z,4.63
2018-06-16T15:15:41.035Z,4.30
2018-06-16T15:18:11.323Z,4.87
2018-06-16T15:20:41.039Z,4.53
2018-06-16T15:23:10.729Z,5.00
2018-06-16T15:25:40.494Z,4.10
2018-06-16T15:28:10.256Z,4.20
2018-06-16T15:30:40.024Z,4.80
2018-06-16T15:33:09.756Z,4.80
2018-06-16T15:35:39.484Z,6.43
2018-06-16T15:38:09.249Z,5.03
2018-06-16T15:40:39.036Z,5.33
2018-06-16T15:43:08.768Z,5.30
2018-06-16T15:45:38.676Z,5.00
2018-06-16T15:48:08.572Z,5.83
2018-06-16T15:50:38.417Z,5.60
2018-06-16T15:53:08.195Z,6.40
2018-06-16T15:55:37.955Z,6.33
2018-06-16T15:58:07.831Z,5.60
2018-06-16T16:00:37.647Z,5.97
2018-06-16T16:03:07.512Z,5.43
2018-06-16T16:05:37.323Z,6.07
2018-06-16T16:08:07.354Z,6.47
2018-06-16T16:10:37.197Z,5.80
2018-06-16T16:13:06.992Z,6.17
2018-06-16T16:15:36.824Z,6.10
2018-06-16T16:18:06.670Z,5.93
2018-06-16T16:20:36.633Z,6.13
2018-06-16T16:23:06.575Z,6.20
2018-06-16T16:25:36.416Z,6.03
2018-06-16T16:28:06.214Z,6.30
2018-06-16T16:30:36.204Z,6.77
2018-06-16T16:33:06.087Z,6.50
2018-06-16T16:35:35.923Z,7.67
2018-06-16T16:38:05.897Z,7.97
2018-06-16T16:40:35.678Z,7.73
2018-06-16T16:43:05.624Z,7.60
2018-06-16T16:45:35.387Z,6.97
2018-06-16T16:48:05.319Z,7.07
2018-06-16T16:50:35.159Z,6.90
2018-06-16T16:53:04.980Z,6.57
2018-06-16T16:55:34.857Z,6.93
2018-06-16T16:58:04.613Z,6.13
2018-06-16T17:00:34.576Z,6.77
2018-06-16T17:03:04.750Z,6.93
2018-06-16T17:05:34.562Z,6.63
2018-06-16T17:08:04.310Z,7.00
2018-06-16T17:10:34.467Z,7.03
2018-06-16T17:13:04.625Z,6.40
2018-06-16T17:15:34.684Z,7.33
2018-06-16T17:18:04.385Z,7.00
2018-06-16T17:20:34.227Z,7.13
2018-06-16T17:23:03.940Z,7.33
2018-06-16T17:25:33.834Z,7.53
2018-06-16T17:28:03.574Z,7.70
2018-06-16T17:30:33.333Z,7.63
2018-06-16T17:33:03.100Z,7.73
2018-06-16T17:35:32.930Z,8.37
2018-06-16T17:38:02.631Z,8.93
2018-06-16T17:40:32.453Z,8.20
2018-06-16T17:43:02.274Z,8.80
2018-06-16T17:45:32.120Z,8.67
2018-06-16T17:48:01.886Z,8.93
2018-06-16T17:50:31.580Z,9.17
2018-06-16T17:53:01.378Z,9.17
2018-06-16T17:55:31.164Z,9.23
2018-06-16T17:58:00.949Z,8.63
2018-06-16T18:00:30.768Z,8.70
2018-06-16T18:03:00.539Z,9.30
2018-06-16T18:05:30.312Z,9.33
2018-06-16T18:08:00.157Z,9.53
2018-06-16T18:10:29.951Z,9.97
2018-06-16T18:12:59.656Z,10.63
2018-06-16T18:15:29.361Z,11.77
2018-06-16T18:17:59.127Z,11.23
2018-06-16T18:20:28.840Z,9.53
2018-06-16T18:22:58.623Z,9.40
2018-06-16T18:25:28.426Z,9.93
2018-06-16T18:27:58.142Z,10.07
2018-06-16T18:30:27.930Z,10.13
2018-06-16T18:32:58.067Z,9.83
2018-06-16T18:35:28.423Z,10.73
2018-06-16T18:37:58.801Z,10.47
2018-06-16T18:40:29.160Z,13.53
2018-06-16T18:42:59.442Z,14.60
2018-06-16T18:45:29.279Z,14.47
2018-06-16T18:47:58.988Z,14.90
2018-06-16T18:50:28.808Z,13.67
2018-06-16T18:52:58.613Z,13.40
2018-06-16T18:55:28.456Z,13.83
2018-06-16T18:57:58.394Z,14.70
2018-06-16T19:00:28.612Z,15.43
2018-06-16T19:02:58.624Z,17.37
2018-06-16T19:05:28.460Z,17.03
2018-06-16T19:08:07.911Z,15.17
2018-06-16T19:10:38.207Z,15.80
2018-06-16T19:13:08.000Z,17.67
2018-06-16T19:15:37.919Z,17.27
2018-06-16T19:18:07.696Z,17.73
2018-06-16T19:20:37.475Z,17.00
2018-06-16T19:23:07.408Z,17.93
2018-06-16T19:25:37.151Z,17.20
2018-06-16T19:28:06.905Z,16.33
2018-06-16T19:30:36.625Z,16.83
2018-06-16T19:33:06.383Z,17.83
2018-06-16T19:35:36.257Z,18.27
2018-06-16T19:38:06.068Z,18.00
2018-06-16T19:40:35.822Z,16.43
2018-06-16T19:43:05.613Z,17.30
2018-06-16T19:45:35.413Z,18.70
2018-06-16T19:48:05.171Z,18.40
2018-06-16T19:50:34.900Z,18.27
2018-06-16T19:53:04.646Z,16.80
2018-06-16T19:55:34.409Z,17.90
2018-06-16T19:58:05.716Z,18.57
2018-06-16T20:00:35.488Z,18.27
2018-06-16T20:03:05.287Z,18.20
2018-06-16T20:05:34.968Z,17.97
2018-06-16T20:08:05.061Z,18.10
2018-06-16T20:10:34.823Z,17.53
2018-06-16T20:13:04.562Z,19.23
2018-06-16T20:15:34.315Z,20.70
2018-06-16T20:18:04.082Z,19.57
2018-06-16T20:20:33.767Z,19.57
2018-06-16T20:23:03.444Z,19.47
2018-06-16T20:25:34.088Z,19.23
2018-06-16T20:28:04.747Z,20.77
2018-06-16T20:30:35.362Z,21.50
2018-06-16T20:33:06.150Z,20.33
2018-06-16T20:35:36.854Z,21.97
2018-06-16T20:38:07.554Z,24.70
2018-06-16T20:40:38.199Z,24.93
2018-06-16T20:43:08.817Z,25.33
2018-06-16T20:45:39.833Z,24.03
2018-06-16T20:48:09.698Z,22.53
2018-06-16T20:50:40.574Z,20.73
2018-06-16T20:53:11.361Z,19.93
2018-06-16T20:55:41.941Z,18.90
2018-06-16T20:58:12.646Z,15.27
2018-06-16T21:00:43.252Z,16.03
2018-06-16T21:03:13.307Z,13.13
2018-06-16T21:05:43.905Z,14.07
2018-06-16T21:08:14.770Z,12.60
2018-06-16T21:10:45.101Z,12.60
2018-06-16T21:13:15.842Z,12.47
2018-06-16T21:15:46.684Z,13.07
2018-06-16T21:18:17.437Z,12.23
2018-06-16T21:20:47.878Z,12.93
2018-06-16T21:23:18.339Z,12.77
2018-06-16T21:25:48.395Z,13.00
2018-06-16T21:28:18.986Z,12.07
2018-06-16T21:30:49.390Z,12.27
2018-06-16T21:33:19.587Z,11.07
2018-06-16T21:35:50.176Z,10.70
2018-06-16T21:38:20.786Z,10.50
2018-06-16T21:40:51.382Z,10.00
2018-06-16T21:43:21.396Z,9.77
2018-06-16T21:45:51.223Z,9.57
2018-06-16T21:48:21.806Z,10.00
2018-06-16T21:50:52.246Z,9.57
2018-06-16T21:53:22.808Z,8.87
2018-06-16T21:55:53.343Z,9.10
2018-06-16T21:58:23.228Z,9.70
2018-06-16T22:00:53.536Z,9.83
2018-06-16T22:03:24.192Z,10.73
2018-06-16T22:05:54.759Z,10.73
2018-06-16T22:08:30.158Z,9.90
2018-06-16T22:11:01.526Z,10.23
2018-06-16T22:13:32.319Z,9.90
2018-06-16T22:16:03.021Z,9.47
2018-06-16T22:18:33.972Z,10.03
2018-06-16T22:21:04.679Z,11.17
2018-06-16T22:23:34.459Z,10.83
2018-06-16T22:26:05.403Z,10.83
2018-06-16T22:28:36.101Z,11.87
2018-06-16T22:31:06.716Z,11.40
2018-06-16T22:33:37.498Z,11.30
2018-06-16T22:36:08.259Z,10.77
2018-06-16T22:38:38.869Z,11.20
2018-06-16T22:41:09.728Z,11.50
2018-06-16T22:43:40.397Z,10.17
2018-06-16T22:46:10.516Z,10.97
2018-06-16T22:48:41.148Z,10.23
2018-06-16T22:51:11.920Z,12.03
2018-06-16T22:53:43.239Z,11.50
2018-06-16T22:56:14.065Z,11.53
2018-06-16T22:58:44.129Z,12.07
2018-06-16T23:01:14.618Z,12.43
2018-06-16T23:03:45.265Z,11.77
2018-06-16T23:06:16.668Z,11.23
2018-06-16T23:08:47.283Z,11.10
2018-06-16T23:11:17.894Z,10.50
2018-06-16T23:13:48.074Z,11.00
2018-06-16T23:16:18.174Z,10.50
2018-06-16T23:18:47.991Z,11.27
2018-06-16T23:21:19.502Z,10.30
2018-06-16T23:23:50.021Z,10.17
2018-06-16T23:26:21.443Z,9.63
2018-06-16T23:28:52.224Z,10.90
2018-06-16T23:31:22.990Z,10.67
2018-06-16T23:33:53.419Z,10.00
2018-06-16T23:36:24.556Z,10.30
2018-06-16T23:38:55.331Z,11.47
2018-06-16T23:41:25.861Z,10.93
2018-06-16T23:43:56.583Z,11.50
2018-06-16T23:46:27.115Z,11.23
2018-06-16T23:48:57.058Z,11.90
2018-06-16T23:51:27.701Z,9.77
2018-06-16T23:53:58.454Z,9.70
2018-06-16T23:56:28.934Z,10.80
2018-06-16T23:58:59.577Z,10.53
